sensor_id;sensor_type;location;lat;lon;timestamp;pressure;altitude;pressure_sealevel;temperature;humidity
58072;BME280;60383;46.626;18.866;2023-04-19T00:01:26;100396.13;;;11.12;81.78
58072;BME280;60383;46.626;18.866;2023-04-19T00:03:53;100392.56;;;11.20;82.20
58072;BME280;60383;46.626;18.866;2023-04-19T00:06:20;100393.97;;;11.24;82.14
58072;BME280;60383;46.626;18.866;2023-04-19T00:08:45;100388.53;;;11.32;81.83
58072;BME280;60383;46.626;18.866;2023-04-19T00:11:11;100388.31;;;11.26;81.22
58072;BME280;60383;46.626;18.866;2023-04-19T00:13:36;100384.84;;;11.15;81.35
58072;BME280;60383;46.626;18.866;2023-04-19T00:16:02;100379.88;;;11.19;80.98
58072;BME280;60383;46.626;18.866;2023-04-19T00:18:28;100379.19;;;11.17;81.46
58072;BME280;60383;46.626;18.866;2023-04-19T00:20:53;100381.75;;;11.18;82.16
58072;BME280;60383;46.626;18.866;2023-04-19T00:23:19;100371.28;;;11.14;82.50
58072;BME280;60383;46.626;18.866;2023-04-19T00:25:45;100374.56;;;11.17;82.86
58072;BME280;60383;46.626;18.866;2023-04-19T00:28:10;100376.63;;;11.15;82.93
58072;BME280;60383;46.626;18.866;2023-04-19T00:30:36;100366.78;;;11.05;83.44
58072;BME280;60383;46.626;18.866;2023-04-19T00:33:01;100372.28;;;11.05;83.31
58072;BME280;60383;46.626;18.866;2023-04-19T00:35:27;100369.78;;;10.93;84.33
58072;BME280;60383;46.626;18.866;2023-04-19T00:37:52;100374.78;;;10.98;84.09
58072;BME280;60383;46.626;18.866;2023-04-19T00:40:18;100369.66;;;10.95;83.97
58072;BME280;60383;46.626;18.866;2023-04-19T00:42:43;100361.19;;;10.88;84.75
58072;BME280;60383;46.626;18.866;2023-04-19T00:45:10;100364.16;;;10.95;84.31
58072;BME280;60383;46.626;18.866;2023-04-19T00:47:36;100365.53;;;10.99;84.23
58072;BME280;60383;46.626;18.866;2023-04-19T00:50:03;100367.09;;;11.01;83.93
58072;BME280;60383;46.626;18.866;2023-04-19T00:52:28;100354.94;;;11.04;83.99
58072;BME280;60383;46.626;18.866;2023-04-19T00:54:54;100356.78;;;10.95;84.41
58072;BME280;60383;46.626;18.866;2023-04-19T00:57:22;100354.16;;;11.12;84.29
58072;BME280;60383;46.626;18.866;2023-04-19T00:59:48;100350.53;;;11.11;84.38
58072;BME280;60383;46.626;18.866;2023-04-19T01:02:13;100342.91;;;10.97;84.61
58072;BME280;60383;46.626;18.866;2023-04-19T01:04:39;100340.13;;;10.89;84.99
58072;BME280;60383;46.626;18.866;2023-04-19T01:07:04;100337.72;;;10.85;85.07
58072;BME280;60383;46.626;18.866;2023-04-19T01:09:30;100342.19;;;10.86;84.77
58072;BME280;60383;46.626;18.866;2023-04-19T01:11:55;100330.81;;;10.73;85.25
58072;BME280;60383;46.626;18.866;2023-04-19T01:14:21;100338.91;;;10.83;84.88
58072;BME280;60383;46.626;18.866;2023-04-19T01:16:46;100329.44;;;10.77;85.33
58072;BME280;60383;46.626;18.866;2023-04-19T01:19:12;100334.97;;;10.85;84.45
58072;BME280;60383;46.626;18.866;2023-04-19T01:21:37;100329.63;;;10.76;84.57
58072;BME280;60383;46.626;18.866;2023-04-19T01:24:04;100326.34;;;10.72;84.39
58072;BME280;60383;46.626;18.866;2023-04-19T01:26:30;100324.34;;;10.82;83.14
58072;BME280;60383;46.626;18.866;2023-04-19T01:28:55;100319.72;;;10.83;82.58
58072;BME280;60383;46.626;18.866;2023-04-19T01:31:21;100320.56;;;10.83;82.85
58072;BME280;60383;46.626;18.866;2023-04-19T01:33:46;100318.53;;;10.85;82.28
58072;BME280;60383;46.626;18.866;2023-04-19T01:36:12;100315.84;;;10.94;82.07
58072;BME280;60383;46.626;18.866;2023-04-19T01:38:37;100316.56;;;10.69;82.46
58072;BME280;60383;46.626;18.866;2023-04-19T01:41:03;100312.47;;;10.74;82.79
58072;BME280;60383;46.626;18.866;2023-04-19T01:43:28;100323.31;;;10.83;82.44
58072;BME280;60383;46.626;18.866;2023-04-19T01:45:54;100316.75;;;10.76;82.39
58072;BME280;60383;46.626;18.866;2023-04-19T01:48:19;100317.66;;;10.77;82.82
58072;BME280;60383;46.626;18.866;2023-04-19T01:50:45;100309.47;;;10.59;82.98
58072;BME280;60383;46.626;18.866;2023-04-19T01:53:10;100308.81;;;10.65;83.09
58072;BME280;60383;46.626;18.866;2023-04-19T01:55:36;100306.69;;;10.77;82.76
58072;BME280;60383;46.626;18.866;2023-04-19T01:58:01;100307.47;;;10.69;82.34
58072;BME280;60383;46.626;18.866;2023-04-19T02:00:27;100300.75;;;10.90;81.87
58072;BME280;60383;46.626;18.866;2023-04-19T02:02:52;100305.44;;;10.71;82.24
58072;BME280;60383;46.626;18.866;2023-04-19T02:05:18;100312.63;;;10.72;82.48
58072;BME280;60383;46.626;18.866;2023-04-19T02:07:43;100314.09;;;10.84;81.85
58072;BME280;60383;46.626;18.866;2023-04-19T02:10:09;100313.25;;;10.84;82.10
58072;BME280;60383;46.626;18.866;2023-04-19T02:12:36;100306.88;;;10.83;81.21
58072;BME280;60383;46.626;18.866;2023-04-19T02:15:02;100297.09;;;10.81;81.32
58072;BME280;60383;46.626;18.866;2023-04-19T02:17:27;100301.41;;;10.83;80.81
58072;BME280;60383;46.626;18.866;2023-04-19T02:19:53;100303.44;;;10.81;80.82
58072;BME280;60383;46.626;18.866;2023-04-19T02:22:19;100299.47;;;10.76;81.04
58072;BME280;60383;46.626;18.866;2023-04-19T02:24:45;100302.41;;;10.82;80.40
58072;BME280;60383;46.626;18.866;2023-04-19T02:27:12;100306.19;;;10.81;79.78
58072;BME280;60383;46.626;18.866;2023-04-19T02:29:38;100301.88;;;10.79;80.47
58072;BME280;60383;46.626;18.866;2023-04-19T02:32:04;100299.69;;;10.82;80.09
58072;BME280;60383;46.626;18.866;2023-04-19T02:34:31;100296.56;;;10.77;80.11
58072;BME280;60383;46.626;18.866;2023-04-19T02:36:57;100302.91;;;10.78;80.12
58072;BME280;60383;46.626;18.866;2023-04-19T02:39:22;100291.69;;;10.63;80.59
58072;BME280;60383;46.626;18.866;2023-04-19T02:41:48;100291.91;;;10.69;80.98
58072;BME280;60383;46.626;18.866;2023-04-19T02:44:14;100300.44;;;10.66;81.29
58072;BME280;60383;46.626;18.866;2023-04-19T02:46:39;100289.53;;;10.75;81.74
58072;BME280;60383;46.626;18.866;2023-04-19T02:49:05;100287.56;;;10.59;81.69
58072;BME280;60383;46.626;18.866;2023-04-19T02:51:30;100284.34;;;10.63;82.08
58072;BME280;60383;46.626;18.866;2023-04-19T02:53:56;100288.84;;;10.73;81.90
58072;BME280;60383;46.626;18.866;2023-04-19T02:56:21;100290.78;;;10.54;81.90
58072;BME280;60383;46.626;18.866;2023-04-19T02:58:47;100286.97;;;10.47;82.72
58072;BME280;60383;46.626;18.866;2023-04-19T03:01:12;100280.00;;;10.52;82.60
58072;BME280;60383;46.626;18.866;2023-04-19T03:03:38;100277.94;;;10.54;83.07
58072;BME280;60383;46.626;18.866;2023-04-19T03:06:03;100275.84;;;10.48;83.43
58072;BME280;60383;46.626;18.866;2023-04-19T03:08:29;100274.84;;;10.49;83.55
58072;BME280;60383;46.626;18.866;2023-04-19T03:10:54;100277.63;;;10.58;83.02
58072;BME280;60383;46.626;18.866;2023-04-19T03:13:20;100278.88;;;10.63;82.39
58072;BME280;60383;46.626;18.866;2023-04-19T03:15:46;100271.66;;;10.62;81.89
58072;BME280;60383;46.626;18.866;2023-04-19T03:18:11;100269.06;;;10.61;81.82
58072;BME280;60383;46.626;18.866;2023-04-19T03:20:37;100273.88;;;10.59;81.28
58072;BME280;60383;46.626;18.866;2023-04-19T03:23:02;100260.19;;;10.59;81.01
58072;BME280;60383;46.626;18.866;2023-04-19T03:25:28;100265.66;;;10.59;80.92
58072;BME280;60383;46.626;18.866;2023-04-19T03:27:53;100260.19;;;10.59;80.47
58072;BME280;60383;46.626;18.866;2023-04-19T03:30:18;100255.06;;;10.64;80.20
58072;BME280;60383;46.626;18.866;2023-04-19T03:32:46;100262.75;;;10.60;80.51
58072;BME280;60383;46.626;18.866;2023-04-19T03:35:11;100258.78;;;10.54;80.97
58072;BME280;60383;46.626;18.866;2023-04-19T03:37:37;100258.16;;;10.69;81.50
58072;BME280;60383;46.626;18.866;2023-04-19T03:40:03;100255.25;;;10.62;81.91
58072;BME280;60383;46.626;18.866;2023-04-19T03:42:29;100255.72;;;10.58;82.18
58072;BME280;60383;46.626;18.866;2023-04-19T03:44:55;100257.06;;;10.53;82.95
58072;BME280;60383;46.626;18.866;2023-04-19T03:47:21;100257.06;;;10.53;83.63
58072;BME280;60383;46.626;18.866;2023-04-19T03:49:46;100252.13;;;10.57;83.81
58072;BME280;60383;46.626;18.866;2023-04-19T03:52:12;100255.38;;;10.61;84.41
58072;BME280;60383;46.626;18.866;2023-04-19T03:54:37;100251.19;;;10.48;84.90
58072;BME280;60383;46.626;18.866;2023-04-19T03:57:02;100247.50;;;10.58;85.31
58072;BME280;60383;46.626;18.866;2023-04-19T03:59:28;100252.38;;;10.46;85.98
58072;BME280;60383;46.626;18.866;2023-04-19T04:01:54;100251.47;;;10.37;86.50
58072;BME280;60383;46.626;18.866;2023-04-19T04:04:19;100251.00;;;10.23;86.69
58072;BME280;60383;46.626;18.866;2023-04-19T04:06:44;100242.88;;;10.32;87.05
58072;BME280;60383;46.626;18.866;2023-04-19T04:09:10;100239.13;;;10.33;86.48
58072;BME280;60383;46.626;18.866;2023-04-19T04:11:35;100236.44;;;10.41;86.31
58072;BME280;60383;46.626;18.866;2023-04-19T04:14:01;100242.53;;;10.35;85.88
58072;BME280;60383;46.626;18.866;2023-04-19T04:16:26;100241.63;;;10.26;86.08
58072;BME280;60383;46.626;18.866;2023-04-19T04:18:52;100241.78;;;10.25;86.31
58072;BME280;60383;46.626;18.866;2023-04-19T04:21:17;100235.06;;;10.19;86.79
58072;BME280;60383;46.626;18.866;2023-04-19T04:23:43;100230.41;;;10.11;87.63
58072;BME280;60383;46.626;18.866;2023-04-19T04:26:09;100230.94;;;10.15;88.07
58072;BME280;60383;46.626;18.866;2023-04-19T04:28:35;100230.59;;;10.18;88.40
58072;BME280;60383;46.626;18.866;2023-04-19T04:31:00;100239.34;;;10.21;87.81
58072;BME280;60383;46.626;18.866;2023-04-19T04:33:27;100240.94;;;10.06;88.84
58072;BME280;60383;46.626;18.866;2023-04-19T04:35:55;100242.34;;;10.10;89.71
58072;BME280;60383;46.626;18.866;2023-04-19T04:38:22;100240.34;;;10.12;89.71
58072;BME280;60383;46.626;18.866;2023-04-19T04:40:51;100245.41;;;10.07;89.90
58072;BME280;60383;46.626;18.866;2023-04-19T04:43:24;100240.06;;;10.23;89.61
58072;BME280;60383;46.626;18.866;2023-04-19T04:45:53;100246.19;;;10.17;89.77
58072;BME280;60383;46.626;18.866;2023-04-19T04:48:19;100241.38;;;10.37;89.77
58072;BME280;60383;46.626;18.866;2023-04-19T04:50:45;100246.28;;;10.34;89.50
58072;BME280;60383;46.626;18.866;2023-04-19T04:53:10;100245.38;;;10.25;89.38
58072;BME280;60383;46.626;18.866;2023-04-19T04:55:39;100245.00;;;10.38;89.59
58072;BME280;60383;46.626;18.866;2023-04-19T04:58:04;100239.59;;;10.28;89.56
58072;BME280;60383;46.626;18.866;2023-04-19T05:00:30;100242.16;;;10.30;89.46
58072;BME280;60383;46.626;18.866;2023-04-19T05:02:56;100245.91;;;10.29;89.64
58072;BME280;60383;46.626;18.866;2023-04-19T05:05:21;100245.84;;;10.38;89.48
58072;BME280;60383;46.626;18.866;2023-04-19T05:07:47;100244.16;;;10.46;89.30
58072;BME280;60383;46.626;18.866;2023-04-19T05:10:12;100251.38;;;10.29;90.00
58072;BME280;60383;46.626;18.866;2023-04-19T05:12:38;100241.44;;;10.28;90.11
58072;BME280;60383;46.626;18.866;2023-04-19T05:15:04;100246.53;;;10.41;90.08
58072;BME280;60383;46.626;18.866;2023-04-19T05:17:29;100253.09;;;10.48;88.89
58072;BME280;60383;46.626;18.866;2023-04-19T05:19:55;100248.47;;;10.30;89.97
58072;BME280;60383;46.626;18.866;2023-04-19T05:22:20;100248.97;;;10.26;90.09
58072;BME280;60383;46.626;18.866;2023-04-19T05:24:46;100252.47;;;10.36;89.53
58072;BME280;60383;46.626;18.866;2023-04-19T05:27:11;100253.28;;;10.28;89.86
58072;BME280;60383;46.626;18.866;2023-04-19T05:29:37;100264.31;;;10.36;89.71
58072;BME280;60383;46.626;18.866;2023-04-19T05:32:02;100249.28;;;10.41;89.73
58072;BME280;60383;46.626;18.866;2023-04-19T05:34:28;100251.91;;;10.50;89.06
58072;BME280;60383;46.626;18.866;2023-04-19T05:36:54;100253.19;;;10.38;89.23
58072;BME280;60383;46.626;18.866;2023-04-19T05:39:20;100251.50;;;10.71;88.92
58072;BME280;60383;46.626;18.866;2023-04-19T05:41:45;100244.41;;;10.87;88.15
58072;BME280;60383;46.626;18.866;2023-04-19T05:44:10;100251.25;;;11.26;86.15
58072;BME280;60383;46.626;18.866;2023-04-19T05:46:36;100249.47;;;11.59;84.48
58072;BME280;60383;46.626;18.866;2023-04-19T05:49:01;100245.16;;;11.48;84.65
58072;BME280;60383;46.626;18.866;2023-04-19T05:51:27;100243.28;;;11.82;84.38
58072;BME280;60383;46.626;18.866;2023-04-19T05:53:52;100244.00;;;12.09;83.06
58072;BME280;60383;46.626;18.866;2023-04-19T05:56:18;100234.38;;;12.38;82.38
58072;BME280;60383;46.626;18.866;2023-04-19T05:58:44;100235.78;;;12.25;80.44
58072;BME280;60383;46.626;18.866;2023-04-19T06:01:10;100236.41;;;12.69;79.29
58072;BME280;60383;46.626;18.866;2023-04-19T06:03:35;100233.22;;;12.97;79.22
58072;BME280;60383;46.626;18.866;2023-04-19T06:06:01;100232.56;;;13.26;76.50
58072;BME280;60383;46.626;18.866;2023-04-19T06:08:26;100237.28;;;13.49;73.91
58072;BME280;60383;46.626;18.866;2023-04-19T06:10:52;100239.91;;;13.65;72.13
58072;BME280;60383;46.626;18.866;2023-04-19T06:13:19;100231.22;;;13.77;71.00
58072;BME280;60383;46.626;18.866;2023-04-19T06:15:44;100230.72;;;13.73;70.66
58072;BME280;60383;46.626;18.866;2023-04-19T06:18:10;100237.47;;;13.94;67.65
58072;BME280;60383;46.626;18.866;2023-04-19T06:20:36;100240.41;;;13.92;68.49
58072;BME280;60383;46.626;18.866;2023-04-19T06:23:02;100241.69;;;14.04;69.45
58072;BME280;60383;46.626;18.866;2023-04-19T06:25:28;100238.25;;;14.26;68.30
58072;BME280;60383;46.626;18.866;2023-04-19T06:27:54;100240.59;;;14.29;67.01
58072;BME280;60383;46.626;18.866;2023-04-19T06:30:19;100245.88;;;13.77;68.49
58072;BME280;60383;46.626;18.866;2023-04-19T06:32:45;100239.44;;;13.85;69.03
58072;BME280;60383;46.626;18.866;2023-04-19T06:35:10;100241.41;;;14.14;69.58
58072;BME280;60383;46.626;18.866;2023-04-19T06:37:36;100243.06;;;14.24;69.35
58072;BME280;60383;46.626;18.866;2023-04-19T06:40:01;100244.53;;;14.49;70.19
58072;BME280;60383;46.626;18.866;2023-04-19T06:42:29;100247.34;;;14.94;69.27
58072;BME280;60383;46.626;18.866;2023-04-19T06:44:54;100249.44;;;15.22;68.05
58072;BME280;60383;46.626;18.866;2023-04-19T06:47:21;100241.91;;;15.31;66.53
58072;BME280;60383;46.626;18.866;2023-04-19T06:49:47;100255.03;;;15.29;67.15
58072;BME280;60383;46.626;18.866;2023-04-19T06:52:12;100250.69;;;14.90;65.40
58072;BME280;60383;46.626;18.866;2023-04-19T06:54:37;100251.28;;;14.85;65.29
58072;BME280;60383;46.626;18.866;2023-04-19T06:57:03;100249.28;;;14.94;65.10
58072;BME280;60383;46.626;18.866;2023-04-19T06:59:28;100241.00;;;15.45;64.01
58072;BME280;60383;46.626;18.866;2023-04-19T07:01:56;100246.19;;;15.33;64.37
58072;BME280;60383;46.626;18.866;2023-04-19T07:04:24;100236.09;;;15.26;64.84
58072;BME280;60383;46.626;18.866;2023-04-19T07:06:49;100244.19;;;15.42;64.90
58072;BME280;60383;46.626;18.866;2023-04-19T07:09:15;100245.13;;;15.86;63.47
58072;BME280;60383;46.626;18.866;2023-04-19T07:11:40;100244.06;;;16.09;63.01
58072;BME280;60383;46.626;18.866;2023-04-19T07:14:06;100243.72;;;16.19;63.76
58072;BME280;60383;46.626;18.866;2023-04-19T07:16:31;100244.63;;;16.26;63.50
58072;BME280;60383;46.626;18.866;2023-04-19T07:18:57;100250.09;;;16.48;61.43
58072;BME280;60383;46.626;18.866;2023-04-19T07:21:23;100246.72;;;16.45;63.17
58072;BME280;60383;46.626;18.866;2023-04-19T07:23:56;100248.78;;;16.37;62.23
58072;BME280;60383;46.626;18.866;2023-04-19T07:26:22;100249.41;;;16.39;61.41
58072;BME280;60383;46.626;18.866;2023-04-19T07:28:47;100251.44;;;16.02;62.22
58072;BME280;60383;46.626;18.866;2023-04-19T07:31:15;100239.75;;;16.06;61.94
58072;BME280;60383;46.626;18.866;2023-04-19T07:33:41;100249.72;;;16.01;64.08
58072;BME280;60383;46.626;18.866;2023-04-19T07:36:07;100254.19;;;16.02;63.22
58072;BME280;60383;46.626;18.866;2023-04-19T07:38:33;100254.91;;;15.89;62.52
58072;BME280;60383;46.626;18.866;2023-04-19T07:40:59;100258.59;;;15.96;62.14
58072;BME280;60383;46.626;18.866;2023-04-19T07:43:24;100256.88;;;16.17;60.09
58072;BME280;60383;46.626;18.866;2023-04-19T07:45:51;100252.47;;;16.22;60.00
58072;BME280;60383;46.626;18.866;2023-04-19T07:48:17;100250.88;;;16.35;59.20
58072;BME280;60383;46.626;18.866;2023-04-19T07:50:42;100252.88;;;16.48;58.28
58072;BME280;60383;46.626;18.866;2023-04-19T07:53:08;100250.91;;;16.41;59.79
58072;BME280;60383;46.626;18.866;2023-04-19T07:55:33;100248.47;;;16.53;58.88
58072;BME280;60383;46.626;18.866;2023-04-19T07:58:00;100243.53;;;16.49;59.60
58072;BME280;60383;46.626;18.866;2023-04-19T08:00:25;100244.72;;;16.61;59.85
58072;BME280;60383;46.626;18.866;2023-04-19T08:02:51;100236.72;;;16.80;59.83
58072;BME280;60383;46.626;18.866;2023-04-19T08:05:16;100239.84;;;16.98;58.59
58072;BME280;60383;46.626;18.866;2023-04-19T08:07:43;100237.97;;;17.05;59.12
58072;BME280;60383;46.626;18.866;2023-04-19T08:10:09;100246.75;;;17.16;57.63
58072;BME280;60383;46.626;18.866;2023-04-19T08:12:35;100235.88;;;17.07;56.57
58072;BME280;60383;46.626;18.866;2023-04-19T08:15:02;100237.66;;;17.29;58.31
58072;BME280;60383;46.626;18.866;2023-04-19T08:17:28;100240.78;;;17.67;55.86
58072;BME280;60383;46.626;18.866;2023-04-19T08:19:53;100231.88;;;17.85;53.55
58072;BME280;60383;46.626;18.866;2023-04-19T08:22:19;100226.78;;;18.09;52.02
58072;BME280;60383;46.626;18.866;2023-04-19T08:24:48;100225.75;;;18.17;52.31
58072;BME280;60383;46.626;18.866;2023-04-19T08:27:14;100234.50;;;18.34;50.30
58072;BME280;60383;46.626;18.866;2023-04-19T08:29:39;100227.44;;;18.11;52.74
58072;BME280;60383;46.626;18.866;2023-04-19T08:32:05;100227.88;;;18.42;48.88
58072;BME280;60383;46.626;18.866;2023-04-19T08:34:34;100218.47;;;18.56;48.48
58072;BME280;60383;46.626;18.866;2023-04-19T08:37:00;100222.09;;;18.70;48.89
58072;BME280;60383;46.626;18.866;2023-04-19T08:39:26;100216.06;;;19.07;47.89
58072;BME280;60383;46.626;18.866;2023-04-19T08:41:52;100208.66;;;18.67;48.52
58072;BME280;60383;46.626;18.866;2023-04-19T08:44:20;100222.22;;;19.15;49.00
58072;BME280;60383;46.626;18.866;2023-04-19T08:46:47;100212.97;;;19.28;48.51
58072;BME280;60383;46.626;18.866;2023-04-19T08:49:15;100213.47;;;19.57;45.84
58072;BME280;60383;46.626;18.866;2023-04-19T08:51:41;100216.06;;;19.91;44.56
58072;BME280;60383;46.626;18.866;2023-04-19T08:54:08;100204.41;;;20.07;42.83
58072;BME280;60383;46.626;18.866;2023-04-19T08:56:34;100213.25;;;20.23;42.60
58072;BME280;60383;46.626;18.866;2023-04-19T08:58:59;100216.28;;;20.21;43.99
58072;BME280;60383;46.626;18.866;2023-04-19T09:01:25;100209.63;;;19.97;38.83
58072;BME280;60383;46.626;18.866;2023-04-19T09:03:50;100213.66;;;19.62;39.19
58072;BME280;60383;46.626;18.866;2023-04-19T09:06:16;100212.53;;;19.31;41.77
58072;BME280;60383;46.626;18.866;2023-04-19T09:08:41;100217.13;;;18.99;44.63
58072;BME280;60383;46.626;18.866;2023-04-19T09:11:07;100215.03;;;18.74;46.68
58072;BME280;60383;46.626;18.866;2023-04-19T09:13:33;100216.09;;;18.73;43.95
58072;BME280;60383;46.626;18.866;2023-04-19T09:16:03;100220.00;;;18.39;45.17
58072;BME280;60383;46.626;18.866;2023-04-19T09:18:29;100213.16;;;18.34;46.72
58072;BME280;60383;46.626;18.866;2023-04-19T09:20:54;100213.59;;;18.25;46.07
58072;BME280;60383;46.626;18.866;2023-04-19T09:23:24;100213.59;;;17.98;46.60
58072;BME280;60383;46.626;18.866;2023-04-19T09:28:15;100215.81;;;17.54;48.16
58072;BME280;60383;46.626;18.866;2023-04-19T09:30:41;100203.91;;;17.53;49.03
58072;BME280;60383;46.626;18.866;2023-04-19T09:33:07;100203.22;;;17.38;49.52
58072;BME280;60383;46.626;18.866;2023-04-19T09:35:44;100204.03;;;17.38;47.79
58072;BME280;60383;46.626;18.866;2023-04-19T09:38:12;100208.25;;;17.28;48.31
58072;BME280;60383;46.626;18.866;2023-04-19T09:40:38;100208.16;;;17.56;47.92
58072;BME280;60383;46.626;18.866;2023-04-19T09:43:04;100196.69;;;17.72;48.52
58072;BME280;60383;46.626;18.866;2023-04-19T09:45:43;100203.28;;;17.71;48.66
58072;BME280;60383;46.626;18.866;2023-04-19T09:48:10;100199.66;;;17.71;48.30
58072;BME280;60383;46.626;18.866;2023-04-19T09:50:58;100196.75;;;18.06;45.46
58072;BME280;60383;46.626;18.866;2023-04-19T09:53:26;100190.56;;;18.04;43.46
58072;BME280;60383;46.626;18.866;2023-04-19T09:55:52;100196.25;;;17.82;44.29
58072;BME280;60383;46.626;18.866;2023-04-19T09:58:19;100192.66;;;17.88;43.75
58072;BME280;60383;46.626;18.866;2023-04-19T10:00:46;100187.56;;;18.06;44.16
58072;BME280;60383;46.626;18.866;2023-04-19T10:03:14;100184.56;;;18.41;42.75
58072;BME280;60383;46.626;18.866;2023-04-19T10:05:40;100187.50;;;18.86;42.20
58072;BME280;60383;46.626;18.866;2023-04-19T10:08:07;100183.72;;;19.26;41.80
58072;BME280;60383;46.626;18.866;2023-04-19T10:10:33;100185.03;;;19.62;41.87
58072;BME280;60383;46.626;18.866;2023-04-19T10:13:00;100181.72;;;20.10;35.97
58072;BME280;60383;46.626;18.866;2023-04-19T10:15:28;100167.97;;;20.41;37.21
58072;BME280;60383;46.626;18.866;2023-04-19T10:17:54;100170.75;;;20.16;35.66
58072;BME280;60383;46.626;18.866;2023-04-19T10:20:33;100170.13;;;19.82;37.08
58072;BME280;60383;46.626;18.866;2023-04-19T10:23:06;100166.66;;;19.61;34.11
58072;BME280;60383;46.626;18.866;2023-04-19T10:25:31;100167.19;;;18.99;35.26
58072;BME280;60383;46.626;18.866;2023-04-19T10:27:57;100164.28;;;18.74;36.12
58072;BME280;60383;46.626;18.866;2023-04-19T10:30:23;100167.13;;;18.27;37.39
58072;BME280;60383;46.626;18.866;2023-04-19T10:32:54;100168.81;;;18.08;38.11
58072;BME280;60383;46.626;18.866;2023-04-19T10:35:27;100164.78;;;18.10;37.77
58072;BME280;60383;46.626;18.866;2023-04-19T10:38:10;100161.31;;;17.75;37.62
58072;BME280;60383;46.626;18.866;2023-04-19T10:40:56;100155.34;;;17.71;39.15
58072;BME280;60383;46.626;18.866;2023-04-19T10:43:26;100157.25;;;17.50;39.47
58072;BME280;60383;46.626;18.866;2023-04-19T10:45:52;100149.78;;;17.64;39.90
58072;BME280;60383;46.626;18.866;2023-04-19T10:51:16;100148.31;;;17.62;42.85
58072;BME280;60383;46.626;18.866;2023-04-19T11:01:48;100148.00;;;17.16;40.86
58072;BME280;60383;46.626;18.866;2023-04-19T11:09:22;100136.16;;;17.49;43.36
58072;BME280;60383;46.626;18.866;2023-04-19T11:11:48;100141.06;;;17.54;44.07
58072;BME280;60383;46.626;18.866;2023-04-19T11:14:14;100142.56;;;17.70;45.77
58072;BME280;60383;46.626;18.866;2023-04-19T11:16:41;100131.50;;;17.63;47.48
58072;BME280;60383;46.626;18.866;2023-04-19T11:19:06;100139.38;;;17.66;47.82
58072;BME280;60383;46.626;18.866;2023-04-19T11:21:32;100149.59;;;17.66;48.01
58072;BME280;60383;46.626;18.866;2023-04-19T11:24:08;100143.59;;;17.42;49.33
58072;BME280;60383;46.626;18.866;2023-04-19T11:26:33;100139.75;;;17.36;50.65
58072;BME280;60383;46.626;18.866;2023-04-19T11:28:59;100149.53;;;17.26;50.71
58072;BME280;60383;46.626;18.866;2023-04-19T11:31:26;100142.63;;;17.08;50.55
58072;BME280;60383;46.626;18.866;2023-04-19T11:33:52;100152.22;;;17.05;51.30
58072;BME280;60383;46.626;18.866;2023-04-19T11:36:18;100138.84;;;17.16;50.89
58072;BME280;60383;46.626;18.866;2023-04-19T11:38:47;100139.47;;;17.18;51.15
58072;BME280;60383;46.626;18.866;2023-04-19T11:41:12;100142.72;;;17.28;50.92
58072;BME280;60383;46.626;18.866;2023-04-19T11:43:38;100141.69;;;17.49;48.21
58072;BME280;60383;46.626;18.866;2023-04-19T11:46:08;100141.06;;;17.54;47.48
58072;BME280;60383;46.626;18.866;2023-04-19T11:48:35;100134.47;;;17.55;46.02
58072;BME280;60383;46.626;18.866;2023-04-19T11:51:01;100137.88;;;17.57;46.62
58072;BME280;60383;46.626;18.866;2023-04-19T11:53:29;100137.88;;;17.64;45.95
58072;BME280;60383;46.626;18.866;2023-04-19T11:56:02;100138.94;;;17.76;46.19
58072;BME280;60383;46.626;18.866;2023-04-19T11:58:32;100139.81;;;17.70;45.27
58072;BME280;60383;46.626;18.866;2023-04-19T12:03:30;100138.97;;;17.69;46.07
58072;BME280;60383;46.626;18.866;2023-04-19T12:06:00;100133.84;;;17.66;46.34
58072;BME280;60383;46.626;18.866;2023-04-19T12:08:43;100129.19;;;18.00;43.75
58072;BME280;60383;46.626;18.866;2023-04-19T12:11:08;100125.34;;;18.01;44.53
58072;BME280;60383;46.626;18.866;2023-04-19T12:13:34;100132.59;;;18.09;44.93
58072;BME280;60383;46.626;18.866;2023-04-19T12:16:01;100129.81;;;18.09;45.67
58072;BME280;60383;46.626;18.866;2023-04-19T12:18:26;100131.72;;;18.02;46.64
58072;BME280;60383;46.626;18.866;2023-04-19T12:20:52;100132.59;;;17.96;47.29
58072;BME280;60383;46.626;18.866;2023-04-19T12:23:19;100133.41;;;17.89;46.49
58072;BME280;60383;46.626;18.866;2023-04-19T12:25:46;100122.78;;;17.73;47.75
58072;BME280;60383;46.626;18.866;2023-04-19T12:28:13;100122.78;;;17.86;46.75
58072;BME280;60383;46.626;18.866;2023-04-19T12:30:39;100115.09;;;17.75;47.77
58072;BME280;60383;46.626;18.866;2023-04-19T12:33:06;100117.00;;;17.68;46.69
58072;BME280;60383;46.626;18.866;2023-04-19T12:35:32;100115.31;;;17.73;47.98
58072;BME280;60383;46.626;18.866;2023-04-19T12:37:59;100117.00;;;17.88;46.10
58072;BME280;60383;46.626;18.866;2023-04-19T12:40:25;100115.09;;;17.82;47.40
58072;BME280;60383;46.626;18.866;2023-04-19T12:42:51;100111.28;;;17.96;47.32
58072;BME280;60383;46.626;18.866;2023-04-19T12:45:18;100108.72;;;18.01;46.29
58072;BME280;60383;46.626;18.866;2023-04-19T12:47:45;100110.00;;;17.99;44.57
58072;BME280;60383;46.626;18.866;2023-04-19T12:50:12;100106.78;;;17.75;44.46
58072;BME280;60383;46.626;18.866;2023-04-19T12:52:38;100109.97;;;17.92;43.82
58072;BME280;60383;46.626;18.866;2023-04-19T12:55:05;100109.59;;;17.95;45.36
58072;BME280;60383;46.626;18.866;2023-04-19T12:57:30;100110.00;;;18.06;46.33